sensor_id;sensor_type;location;lat;lon;timestamp;pressure;altitude;pressure_sealevel;temperature;humidity
63321;BME280;49449;48.800;9.534;2022-09-12T00:02:18;98717.72;;;14.59;43.68
63321;BME280;49449;48.800;9.534;2022-09-12T00:04:46;98705.47;;;14.58;43.73
63321;BME280;49449;48.800;9.534;2022-09-12T00:07:13;98711.84;;;14.57;44.10
63321;BME280;49449;48.800;9.534;2022-09-12T00:09:42;98708.06;;;14.53;43.73
63321;BME280;49449;48.800;9.534;2022-09-12T00:12:10;98709.78;;;14.42;43.65
63321;BME280;49449;48.800;9.534;2022-09-12T00:14:38;98716.66;;;14.38;43.86
63321;BME280;49449;48.800;9.534;2022-09-12T00:17:06;98703.13;;;14.39;43.49
63321;BME280;49449;48.800;9.534;2022-09-12T00:19:33;98705.47;;;14.36;43.81
63321;BME280;49449;48.800;9.534;2022-09-12T00:22:01;98705.47;;;14.36;43.78
63321;BME280;49449;48.800;9.534;2022-09-12T00:24:29;98702.56;;;14.37;43.88
63321;BME280;49449;48.800;9.534;2022-09-12T00:27:00;98702.31;;;14.39;43.92
63321;BME280;49449;48.800;9.534;2022-09-12T00:29:27;98705.78;;;14.39;43.65
63321;BME280;49449;48.800;9.534;2022-09-12T00:31:55;98698.28;;;14.36;43.63
63321;BME280;49449;48.800;9.534;2022-09-12T00:34:23;98694.59;;;14.37;43.38
63321;BME280;49449;48.800;9.534;2022-09-12T00:36:50;98697.19;;;14.32;43.65
63321;BME280;49449;48.800;9.534;2022-09-12T00:39:18;98704.84;;;14.29;43.54
63321;BME280;49449;48.800;9.534;2022-09-12T00:41:46;98695.03;;;14.29;43.24
63321;BME280;49449;48.800;9.534;2022-09-12T00:44:42;98702.44;;;14.27;43.15
63321;BME280;49449;48.800;9.534;2022-09-12T00:47:14;98692.84;;;14.26;43.23
63321;BME280;49449;48.800;9.534;2022-09-12T00:49:47;98693.38;;;14.23;43.54
63321;BME280;49449;48.800;9.534;2022-09-12T00:52:20;98695.38;;;14.16;43.85
63321;BME280;49449;48.800;9.534;2022-09-12T00:54:51;98697.31;;;14.20;43.38
63321;BME280;49449;48.800;9.534;2022-09-12T00:57:22;98691.19;;;14.20;43.64
63321;BME280;49449;48.800;9.534;2022-09-12T00:59:57;98694.09;;;14.18;44.09
63321;BME280;49449;48.800;9.534;2022-09-12T01:02:26;98687.16;;;14.17;44.12
63321;BME280;49449;48.800;9.534;2022-09-12T01:04:54;98685.34;;;14.18;43.83
63321;BME280;49449;48.800;9.534;2022-09-12T01:07:22;98687.09;;;14.12;44.05
63321;BME280;49449;48.800;9.534;2022-09-12T01:09:51;98685.28;;;14.13;44.10
63321;BME280;49449;48.800;9.534;2022-09-12T01:12:20;98679.97;;;14.13;44.29
63321;BME280;49449;48.800;9.534;2022-09-12T01:14:48;98675.63;;;14.07;44.32
63321;BME280;49449;48.800;9.534;2022-09-12T01:17:17;98674.28;;;14.04;44.44
63321;BME280;49449;48.800;9.534;2022-09-12T01:23:11;98667.81;;;14.00;44.47
63321;BME280;49449;48.800;9.534;2022-09-12T01:26:01;98661.22;;;14.02;44.70
63321;BME280;49449;48.800;9.534;2022-09-12T01:28:44;98663.88;;;14.02;44.60
63321;BME280;49449;48.800;9.534;2022-09-12T01:31:25;98661.22;;;14.02;44.61
63321;BME280;49449;48.800;9.534;2022-09-12T01:34:04;98654.06;;;14.03;44.51
63321;BME280;49449;48.800;9.534;2022-09-12T01:36:40;98649.22;;;14.00;44.74
63321;BME280;49449;48.800;9.534;2022-09-12T01:39:23;98657.19;;;14.00;44.71
63321;BME280;49449;48.800;9.534;2022-09-12T01:42:03;98659.06;;;13.99;44.43
63321;BME280;49449;48.800;9.534;2022-09-12T01:44:41;98653.19;;;13.97;44.56
63321;BME280;49449;48.800;9.534;2022-09-12T01:47:18;98646.03;;;13.98;44.68
63321;BME280;49449;48.800;9.534;2022-09-12T01:49:52;98652.88;;;13.94;44.60
63321;BME280;49449;48.800;9.534;2022-09-12T01:52:27;98654.19;;;13.91;44.73
63321;BME280;49449;48.800;9.534;2022-09-12T01:55:00;98656.28;;;13.89;44.90
63321;BME280;49449;48.800;9.534;2022-09-12T01:57:38;98660.78;;;13.89;44.94
63321;BME280;49449;48.800;9.534;2022-09-12T02:00:10;98657.44;;;13.76;45.22
63321;BME280;49449;48.800;9.534;2022-09-12T02:02:42;98648.38;;;13.72;45.32
63321;BME280;49449;48.800;9.534;2022-09-12T02:05:19;98653.44;;;13.74;45.39
63321;BME280;49449;48.800;9.534;2022-09-12T02:07:51;98652.94;;;13.77;45.32
63321;BME280;49449;48.800;9.534;2022-09-12T02:10:22;98649.53;;;13.81;45.20
63321;BME280;49449;48.800;9.534;2022-09-12T02:12:55;98652.75;;;13.83;45.47
63321;BME280;49449;48.800;9.534;2022-09-12T02:15:29;98645.19;;;13.75;45.11
63321;BME280;49449;48.800;9.534;2022-09-12T02:18:01;98641.28;;;13.78;44.90
63321;BME280;49449;48.800;9.534;2022-09-12T02:20:33;98641.28;;;13.78;44.88
63321;BME280;49449;48.800;9.534;2022-09-12T02:23:15;98642.88;;;13.79;44.92
63321;BME280;49449;48.800;9.534;2022-09-12T02:25:46;98628.78;;;13.78;44.61
63321;BME280;49449;48.800;9.534;2022-09-12T02:28:18;98635.66;;;13.74;44.54
63321;BME280;49449;48.800;9.534;2022-09-12T02:30:55;98631.91;;;13.70;44.37
63321;BME280;49449;48.800;9.534;2022-09-12T02:33:32;98626.81;;;13.69;44.35
63321;BME280;49449;48.800;9.534;2022-09-12T02:36:09;98629.47;;;13.69;44.63
63321;BME280;49449;48.800;9.534;2022-09-12T02:38:42;98626.00;;;13.68;44.60
63321;BME280;49449;48.800;9.534;2022-09-12T02:41:13;98628.44;;;13.53;45.11
63321;BME280;49449;48.800;9.534;2022-09-12T02:43:42;98626.28;;;13.50;45.31
63321;BME280;49449;48.800;9.534;2022-09-12T02:46:14;98624.34;;;13.45;45.44
63321;BME280;49449;48.800;9.534;2022-09-12T02:48:44;98624.97;;;13.52;45.22
63321;BME280;49449;48.800;9.534;2022-09-12T02:51:12;98623.94;;;13.53;45.13
63321;BME280;49449;48.800;9.534;2022-09-12T02:53:40;98616.50;;;13.55;45.25
63321;BME280;49449;48.800;9.534;2022-09-12T02:56:12;98610.19;;;13.56;45.19
63321;BME280;49449;48.800;9.534;2022-09-12T02:58:43;98615.78;;;13.60;44.98
63321;BME280;49449;48.800;9.534;2022-09-12T03:01:20;98607.53;;;13.56;44.92
63321;BME280;49449;48.800;9.534;2022-09-12T03:04:04;98612.28;;;13.54;44.68
63321;BME280;49449;48.800;9.534;2022-09-12T03:06:48;98621.50;;;13.52;44.54
63321;BME280;49449;48.800;9.534;2022-09-12T03:09:21;98610.09;;;13.51;44.79
63321;BME280;49449;48.800;9.534;2022-09-12T03:12:04;98616.44;;;13.50;44.57
63321;BME280;49449;48.800;9.534;2022-09-12T03:14:48;98613.97;;;13.43;44.59
63321;BME280;49449;48.800;9.534;2022-09-12T03:17:28;98616.38;;;13.45;44.47
63321;BME280;49449;48.800;9.534;2022-09-12T03:20:09;98613.47;;;13.46;44.30
63321;BME280;49449;48.800;9.534;2022-09-12T03:22:44;98611.63;;;13.47;44.19
63321;BME280;49449;48.800;9.534;2022-09-12T03:25:19;98607.94;;;13.48;44.15
63321;BME280;49449;48.800;9.534;2022-09-12T03:27:53;98614.78;;;13.44;44.37
63321;BME280;49449;48.800;9.534;2022-09-12T03:30:22;98619.03;;;13.45;44.28
63321;BME280;49449;48.800;9.534;2022-09-12T03:32:51;98615.03;;;13.42;44.37
63321;BME280;49449;48.800;9.534;2022-09-12T03:35:23;98617.75;;;13.31;44.28
63321;BME280;49449;48.800;9.534;2022-09-12T03:37:51;98616.34;;;13.23;44.54
63321;BME280;49449;48.800;9.534;2022-09-12T03:40:19;98619.38;;;13.15;44.81
63321;BME280;49449;48.800;9.534;2022-09-12T03:42:47;98626.00;;;13.12;44.80
63321;BME280;49449;48.800;9.534;2022-09-12T03:45:15;98619.38;;;13.15;44.78
63321;BME280;49449;48.800;9.534;2022-09-12T03:47:42;98619.22;;;13.21;44.55
63321;BME280;49449;48.800;9.534;2022-09-12T03:50:10;98623.50;;;13.22;44.73
63321;BME280;49449;48.800;9.534;2022-09-12T03:52:39;98618.19;;;13.22;44.55
63321;BME280;49449;48.800;9.534;2022-09-12T03:55:07;98628.81;;;13.22;44.54
63321;BME280;49449;48.800;9.534;2022-09-12T03:57:35;98626.63;;;13.19;44.61
63321;BME280;49449;48.800;9.534;2022-09-12T04:00:03;98625.81;;;13.19;44.84
63321;BME280;49449;48.800;9.534;2022-09-12T04:02:32;98624.53;;;13.21;44.76
63321;BME280;49449;48.800;9.534;2022-09-12T04:05:00;98629.38;;;13.07;44.88
63321;BME280;49449;48.800;9.534;2022-09-12T04:07:27;98630.97;;;13.08;44.76
63321;BME280;49449;48.800;9.534;2022-09-12T04:09:57;98622.78;;;13.10;44.73
63321;BME280;49449;48.800;9.534;2022-09-12T04:12:24;98622.03;;;13.15;44.51
63321;BME280;49449;48.800;9.534;2022-09-12T04:14:52;98617.28;;;13.17;44.50
63321;BME280;49449;48.800;9.534;2022-09-12T04:17:20;98610.97;;;13.18;44.38
63321;BME280;49449;48.800;9.534;2022-09-12T04:19:48;98614.63;;;13.17;44.44
63321;BME280;49449;48.800;9.534;2022-09-12T04:22:15;98612.00;;;13.17;44.27
63321;BME280;49449;48.800;9.534;2022-09-12T04:24:43;98621.81;;;13.16;44.11
63321;BME280;49449;48.800;9.534;2022-09-12T04:27:12;98619.16;;;13.16;44.25
63321;BME280;49449;48.800;9.534;2022-09-12T04:29:40;98614.88;;;13.15;44.38
63321;BME280;49449;48.800;9.534;2022-09-12T04:32:07;98623.25;;;13.07;44.44
63321;BME280;49449;48.800;9.534;2022-09-12T04:34:35;98622.13;;;13.03;44.51
63321;BME280;49449;48.800;9.534;2022-09-12T04:37:03;98616.03;;;13.02;44.47
63321;BME280;49449;48.800;9.534;2022-09-12T04:39:31;98615.78;;;13.04;44.40
63321;BME280;49449;48.800;9.534;2022-09-12T04:41:58;98617.88;;;13.02;44.28
63321;BME280;49449;48.800;9.534;2022-09-12T04:44:27;98615.53;;;13.05;44.19
63321;BME280;49449;48.800;9.534;2022-09-12T04:46:55;98609.69;;;13.03;44.31
63321;BME280;49449;48.800;9.534;2022-09-12T04:49:23;98618.19;;;13.05;44.42
63321;BME280;49449;48.800;9.534;2022-09-12T04:51:51;98619.22;;;13.04;44.37
63321;BME280;49449;48.800;9.534;2022-09-12T04:54:20;98611.03;;;13.06;44.38
63321;BME280;49449;48.800;9.534;2022-09-12T04:56:48;98607.81;;;13.04;44.45
63321;BME280;49449;48.800;9.534;2022-09-12T04:59:18;98615.22;;;13.02;44.42
63321;BME280;49449;48.800;9.534;2022-09-12T05:01:48;98618.19;;;13.05;44.43
63321;BME280;49449;48.800;9.534;2022-09-12T05:04:16;98616.91;;;13.08;44.08
63321;BME280;49449;48.800;9.534;2022-09-12T05:06:44;98624.63;;;13.10;44.11
63321;BME280;49449;48.800;9.534;2022-09-12T05:09:13;98614.00;;;13.10;44.07
63321;BME280;49449;48.800;9.534;2022-09-12T05:11:42;98624.84;;;13.08;44.00
63321;BME280;49449;48.800;9.534;2022-09-12T05:14:30;98622.44;;;13.06;44.18
63321;BME280;49449;48.800;9.534;2022-09-12T05:16:59;98622.19;;;13.08;44.22
63321;BME280;49449;48.800;9.534;2022-09-12T05:19:28;98621.16;;;13.09;44.08
63321;BME280;49449;48.800;9.534;2022-09-12T05:21:56;98621.41;;;13.07;44.09
63321;BME280;49449;48.800;9.534;2022-09-12T05:24:24;98628.34;;;13.08;44.08
63321;BME280;49449;48.800;9.534;2022-09-12T05:26:52;98621.97;;;13.10;44.13
63321;BME280;49449;48.800;9.534;2022-09-12T05:29:20;98627.28;;;13.10;44.04
63321;BME280;49449;48.800;9.534;2022-09-12T05:31:48;98631.31;;;13.12;44.02
63321;BME280;49449;48.800;9.534;2022-09-12T05:34:19;98627.81;;;13.12;44.12
63321;BME280;49449;48.800;9.534;2022-09-12T05:36:47;98624.38;;;13.11;44.18
63321;BME280;49449;48.800;9.534;2022-09-12T05:39:15;98632.34;;;13.11;44.09
63321;BME280;49449;48.800;9.534;2022-09-12T05:41:43;98633.63;;;13.08;44.06
63321;BME280;49449;48.800;9.534;2022-09-12T05:44:12;98638.13;;;13.08;44.14
63321;BME280;49449;48.800;9.534;2022-09-12T05:46:42;98639.25;;;13.12;44.33
63321;BME280;49449;48.800;9.534;2022-09-12T05:49:11;98641.41;;;13.15;43.93
63321;BME280;49449;48.800;9.534;2022-09-12T05:51:44;98643.81;;;13.17;44.10
63321;BME280;49449;48.800;9.534;2022-09-12T05:54:15;98641.41;;;13.15;44.06
63321;BME280;49449;48.800;9.534;2022-09-12T05:56:44;98641.25;;;13.22;43.92
63321;BME280;49449;48.800;9.534;2022-09-12T05:59:15;98642.06;;;13.22;43.82
63321;BME280;49449;48.800;9.534;2022-09-12T06:01:44;98629.69;;;13.28;43.95
63321;BME280;49449;48.800;9.534;2022-09-12T06:04:12;98630.16;;;13.25;44.06
63321;BME280;49449;48.800;9.534;2022-09-12T06:06:42;98630.25;;;13.30;44.07
63321;BME280;49449;48.800;9.534;2022-09-12T06:09:12;98631.03;;;13.31;44.15
63321;BME280;49449;48.800;9.534;2022-09-12T06:11:40;98639.47;;;13.27;43.95
63321;BME280;49449;48.800;9.534;2022-09-12T06:14:08;98631.28;;;13.29;43.98
63321;BME280;49449;48.800;9.534;2022-09-12T06:16:37;98631.59;;;13.33;43.84
63321;BME280;49449;48.800;9.534;2022-09-12T06:19:06;98633.28;;;13.39;43.66
63321;BME280;49449;48.800;9.534;2022-09-12T06:21:35;98631.66;;;13.38;43.68
63321;BME280;49449;48.800;9.534;2022-09-12T06:24:06;98632.53;;;13.43;43.75
63321;BME280;49449;48.800;9.534;2022-09-12T06:26:35;98630.19;;;13.47;43.49
63321;BME280;49449;48.800;9.534;2022-09-12T06:29:03;98624.16;;;13.52;43.60
63321;BME280;49449;48.800;9.534;2022-09-12T06:31:33;98621.44;;;13.46;43.41
63321;BME280;49449;48.800;9.534;2022-09-12T06:34:03;98621.50;;;13.52;43.41
63321;BME280;49449;48.800;9.534;2022-09-12T06:36:33;98615.72;;;13.55;43.06
63321;BME280;49449;48.800;9.534;2022-09-12T06:39:04;98616.22;;;13.52;43.37
63321;BME280;49449;48.800;9.534;2022-09-12T06:41:34;98613.25;;;13.48;43.33
63321;BME280;49449;48.800;9.534;2022-09-12T06:44:04;98607.69;;;13.50;43.23
63321;BME280;49449;48.800;9.534;2022-09-12T06:46:32;98608.25;;;13.52;43.95
63321;BME280;49449;48.800;9.534;2022-09-12T06:49:00;98614.09;;;13.54;43.90
63321;BME280;49449;48.800;9.534;2022-09-12T06:51:28;98612.72;;;13.68;43.44
63321;BME280;49449;48.800;9.534;2022-09-12T06:53:56;98610.88;;;13.91;43.28
63321;BME280;49449;48.800;9.534;2022-09-12T06:56:25;98606.00;;;14.05;43.39
63321;BME280;49449;48.800;9.534;2022-09-12T06:58:56;98620.97;;;14.11;43.28
63321;BME280;49449;48.800;9.534;2022-09-12T07:01:26;98618.00;;;14.07;43.17
63321;BME280;49449;48.800;9.534;2022-09-12T07:03:56;98621.34;;;14.25;42.99
63321;BME280;49449;48.800;9.534;2022-09-12T07:06:26;98614.34;;;14.40;42.96
63321;BME280;49449;48.800;9.534;2022-09-12T07:08:57;98618.00;;;14.34;42.78
63321;BME280;49449;48.800;9.534;2022-09-12T07:11:27;98613.94;;;14.49;42.70
63321;BME280;49449;48.800;9.534;2022-09-12T07:14:01;98611.97;;;14.66;42.37
63321;BME280;49449;48.800;9.534;2022-09-12T07:16:29;98622.25;;;14.90;42.61
63321;BME280;49449;48.800;9.534;2022-09-12T07:18:58;98614.94;;;15.07;42.12
63321;BME280;49449;48.800;9.534;2022-09-12T07:21:27;98615.31;;;15.21;42.24
63321;BME280;49449;48.800;9.534;2022-09-12T07:23:55;98615.16;;;15.33;42.06
63321;BME280;49449;48.800;9.534;2022-09-12T07:26:25;98610.47;;;15.50;41.99
63321;BME280;49449;48.800;9.534;2022-09-12T07:28:54;98607.06;;;15.65;41.59
63321;BME280;49449;48.800;9.534;2022-09-12T07:31:30;98609.81;;;15.86;41.50
63321;BME280;49449;48.800;9.534;2022-09-12T07:33:58;98595.00;;;16.05;41.05
63321;BME280;49449;48.800;9.534;2022-09-12T07:36:26;98602.50;;;16.29;40.48
63321;BME280;49449;48.800;9.534;2022-09-12T07:38:54;98602.81;;;16.43;40.55
63321;BME280;49449;48.800;9.534;2022-09-12T07:41:24;98604.13;;;16.51;40.34
63321;BME280;49449;48.800;9.534;2022-09-12T07:43:53;98604.97;;;16.72;40.14
63321;BME280;49449;48.800;9.534;2022-09-12T07:46:22;98604.72;;;16.94;40.02
63321;BME280;49449;48.800;9.534;2022-09-12T07:48:52;98608.19;;;17.10;39.77
63321;BME280;49449;48.800;9.534;2022-09-12T07:51:22;98602.31;;;17.18;39.54
63321;BME280;49449;48.800;9.534;2022-09-12T07:53:51;98604.41;;;17.31;39.25
63321;BME280;49449;48.800;9.534;2022-09-12T07:56:18;98592.88;;;17.51;39.52
63321;BME280;49449;48.800;9.534;2022-09-12T07:58:49;98584.84;;;17.67;38.92
63321;BME280;49449;48.800;9.534;2022-09-12T08:01:19;98600.53;;;17.84;39.00
63321;BME280;49449;48.800;9.534;2022-09-12T08:03:54;98601.00;;;18.01;38.76
63321;BME280;49449;48.800;9.534;2022-09-12T08:06:23;98596.09;;;18.19;38.56
63321;BME280;49449;48.800;9.534;2022-09-12T08:08:53;98600.25;;;18.40;38.23
63321;BME280;49449;48.800;9.534;2022-09-12T08:11:23;98601.97;;;18.60;38.07
63321;BME280;49449;48.800;9.534;2022-09-12T08:13:52;98603.72;;;18.80;37.77
63321;BME280;49449;48.800;9.534;2022-09-12T08:16:23;98606.78;;;18.98;37.48
63321;BME280;49449;48.800;9.534;2022-09-12T08:18:53;98610.66;;;19.16;37.42
63321;BME280;49449;48.800;9.534;2022-09-12T08:21:23;98606.72;;;19.32;37.62
63321;BME280;49449;48.800;9.534;2022-09-12T08:23:51;98609.22;;;19.53;37.38
63321;BME280;49449;48.800;9.534;2022-09-12T08:26:20;98605.56;;;19.67;36.20
63321;BME280;49449;48.800;9.534;2022-09-12T08:28:48;98601.81;;;19.88;36.16
63321;BME280;49449;48.800;9.534;2022-09-12T08:31:18;98597.28;;;20.07;35.93
63321;BME280;49449;48.800;9.534;2022-09-12T08:33:47;98593.31;;;20.23;35.80
63321;BME280;49449;48.800;9.534;2022-09-12T08:36:17;98588.28;;;20.41;35.70
63321;BME280;49449;48.800;9.534;2022-09-12T08:38:48;98597.75;;;20.52;35.59
63321;BME280;49449;48.800;9.534;2022-09-12T08:41:23;98598.88;;;20.65;35.88
63321;BME280;49449;48.800;9.534;2022-09-12T08:47:07;98590.06;;;20.97;35.87
63321;BME280;49449;48.800;9.534;2022-09-12T08:49:42;98579.56;;;21.15;34.57
63321;BME280;49449;48.800;9.534;2022-09-12T08:52:16;98583.03;;;21.29;34.28
63321;BME280;49449;48.800;9.534;2022-09-12T08:54:46;98577.78;;;21.38;34.53
63321;BME280;49449;48.800;9.534;2022-09-12T08:57:15;98580.38;;;21.43;34.42
63321;BME280;49449;48.800;9.534;2022-09-12T08:59:45;98571.59;;;21.51;34.31
63321;BME280;49449;48.800;9.534;2022-09-12T09:02:27;98567.94;;;21.61;34.07
63321;BME280;49449;48.800;9.534;2022-09-12T09:05:06;98560.25;;;21.68;33.92
63321;BME280;49449;48.800;9.534;2022-09-12T09:08:00;98562.66;;;21.70;33.70
63321;BME280;49449;48.800;9.534;2022-09-12T09:10:42;98562.63;;;21.84;34.05
63321;BME280;49449;48.800;9.534;2022-09-12T09:13:23;98564.78;;;21.96;33.41
63321;BME280;49449;48.800;9.534;2022-09-12T09:16:18;98565.44;;;22.15;34.15
63321;BME280;49449;48.800;9.534;2022-09-12T09:18:50;98558.53;;;22.37;33.66
63321;BME280;49449;48.800;9.534;2022-09-12T09:21:24;98558.31;;;22.56;33.16
63321;BME280;49449;48.800;9.534;2022-09-12T09:24:00;98560.41;;;22.59;32.01
63321;BME280;49449;48.800;9.534;2022-09-12T09:26:39;98560.31;;;22.73;32.16
63321;BME280;49449;48.800;9.534;2022-09-12T09:29:16;98549.97;;;22.89;32.61
63321;BME280;49449;48.800;9.534;2022-09-12T09:31:47;98550.53;;;23.08;31.71
63321;BME280;49449;48.800;9.534;2022-09-12T09:34:19;98540.94;;;23.24;31.33
63321;BME280;49449;48.800;9.534;2022-09-12T09:36:49;98545.09;;;23.31;30.82
63321;BME280;49449;48.800;9.534;2022-09-12T09:39:33;98539.22;;;23.29;30.83
63321;BME280;49449;48.800;9.534;2022-09-12T09:42:20;98536.78;;;23.50;29.94
63321;BME280;49449;48.800;9.534;2022-09-12T09:44:52;98539.47;;;23.58;28.92
63321;BME280;49449;48.800;9.534;2022-09-12T09:47:24;98533.75;;;23.51;27.82
63321;BME280;49449;48.800;9.534;2022-09-12T09:49:52;98531.03;;;23.51;28.02
63321;BME280;49449;48.800;9.534;2022-09-12T09:52:24;98535.47;;;23.38;28.20
63321;BME280;49449;48.800;9.534;2022-09-12T09:54:57;98537.72;;;23.14;28.47
63321;BME280;49449;48.800;9.534;2022-09-12T09:57:44;98546.78;;;23.27;28.61
63321;BME280;49449;48.800;9.534;2022-09-12T10:00:34;98540.16;;;23.24;27.78
63321;BME280;49449;48.800;9.534;2022-09-12T10:03:24;98534.09;;;23.18;27.07
63321;BME280;49449;48.800;9.534;2022-09-12T10:05:58;98537.78;;;23.31;27.17
63321;BME280;49449;48.800;9.534;2022-09-12T10:08:28;98543.16;;;23.22;26.66
63321;BME280;49449;48.800;9.534;2022-09-12T10:11:03;98537.59;;;23.19;27.04
63321;BME280;49449;48.800;9.534;2022-09-12T10:13:35;98532.00;;;23.06;27.92
63321;BME280;49449;48.800;9.534;2022-09-12T10:16:06;98527.88;;;23.00;28.60
63321;BME280;49449;48.800;9.534;2022-09-12T10:18:43;98533.47;;;23.13;28.58
63321;BME280;49449;48.800;9.534;2022-09-12T10:21:24;98533.66;;;23.25;29.20
63321;BME280;49449;48.800;9.534;2022-09-12T10:23:59;98533.19;;;23.32;27.73
63321;BME280;49449;48.800;9.534;2022-09-12T10:26:34;98529.69;;;23.22;26.67
63321;BME280;49449;48.800;9.534;2022-09-12T10:29:09;98526.41;;;23.34;26.94
63321;BME280;49449;48.800;9.534;2022-09-12T10:31:46;98526.31;;;23.48;26.97
63321;BME280;49449;48.800;9.534;2022-09-12T10:34:35;98521.88;;;23.61;27.58
63321;BME280;49449;48.800;9.534;2022-09-12T10:37:05;98522.38;;;23.80;27.94
63321;BME280;49449;48.800;9.534;2022-09-12T10:39:34;98527.00;;;23.89;27.10
63321;BME280;49449;48.800;9.534;2022-09-12T10:42:05;98518.72;;;23.68;26.36
63321;BME280;49449;48.800;9.534;2022-09-12T10:44:33;98517.28;;;23.79;26.99
63321;BME280;49449;48.800;9.534;2022-09-12T10:47:20;98516.66;;;23.91;26.49
63321;BME280;49449;48.800;9.534;2022-09-12T10:49:48;98521.13;;;24.04;26.77
63321;BME280;49449;48.800;9.534;2022-09-12T10:52:21;98519.56;;;24.03;25.97
63321;BME280;49449;48.800;9.534;2022-09-12T10:54:49;98521.13;;;24.04;25.67
63321;BME280;49449;48.800;9.534;2022-09-12T10:57:33;98524.31;;;24.15;25.97
63321;BME280;49449;48.800;9.534;2022-09-12T11:00:09;98520.66;;;24.11;25.41
63321;BME280;49449;48.800;9.534;2022-09-12T11:02:49;98514.78;;;24.00;24.38
63321;BME280;49449;48.800;9.534;2022-09-12T11:05:31;98505.91;;;24.17;25.19
63321;BME280;49449;48.800;9.534;2022-09-12T11:08:10;98511.78;;;24.10;24.23
63321;BME280;49449;48.800;9.534;2022-09-12T11:10:44;98508.91;;;23.98;24.79
63321;BME280;49449;48.800;9.534;2022-09-12T11:13:26;98490.34;;;24.14;25.42
63321;BME280;49449;48.800;9.534;2022-09-12T11:16:09;98488.41;;;24.32;25.77
63321;BME280;49449;48.800;9.534;2022-09-12T11:18:54;98490.59;;;24.47;25.76
63321;BME280;49449;48.800;9.534;2022-09-12T11:21:38;98482.34;;;24.61;24.26
63321;BME280;49449;48.800;9.534;2022-09-12T11:24:43;98490.44;;;24.61;24.89
63321;BME280;49449;48.800;9.534;2022-09-12T11:27:26;98485.22;;;24.56;23.12
63321;BME280;49449;48.800;9.534;2022-09-12T11:30:02;98484.00;;;24.18;23.48
63321;BME280;49449;48.800;9.534;2022-09-12T11:32:58;98470.84;;;24.08;23.67
63321;BME280;49449;48.800;9.534;2022-09-12T11:35:32;98475.06;;;24.27;25.04
63321;BME280;49449;48.800;9.534;2022-09-12T11:38:24;98476.66;;;24.28;24.85
63321;BME280;49449;48.800;9.534;2022-09-12T11:40:58;98474.63;;;24.16;24.27
63321;BME280;49449;48.800;9.534;2022-09-12T11:43:34;98471.59;;;24.17;24.93
63321;BME280;49449;48.800;9.534;2022-09-12T11:46:15;98469.53;;;24.14;24.16
63321;BME280;49449;48.800;9.534;2022-09-12T11:48:48;98466.03;;;24.23;24.74
63321;BME280;49449;48.800;9.534;2022-09-12T11:51:19;98468.41;;;24.33;25.13
63321;BME280;49449;48.800;9.534;2022-09-12T11:53:58;98468.56;;;24.36;24.22
63321;BME280;49449;48.800;9.534;2022-09-12T11:56:28;98459.03;;;24.30;24.50
63321;BME280;49449;48.800;9.534;2022-09-12T11:59:00;98461.91;;;24.16;24.42
63321;BME280;49449;48.800;9.534;2022-09-12T12:01:37;98453.34;;;24.14;24.34
63321;BME280;49449;48.800;9.534;2022-09-12T12:04:10;98453.34;;;24.14;24.23
63321;BME280;49449;48.800;9.534;2022-09-12T12:06:44;98452.88;;;24.12;23.90
63321;BME280;49449;48.800;9.534;2022-09-12T12:09:13;98449.41;;;23.94;23.87
63321;BME280;49449;48.800;9.534;2022-09-12T12:11:44;98445.13;;;24.02;24.17
63321;BME280;49449;48.800;9.534;2022-09-12T12:14:17;98447.47;;;24.12;24.02
63321;BME280;49449;48.800;9.534;2022-09-12T12:16:48;98438.59;;;24.21;23.79
63321;BME280;49449;48.800;9.534;2022-09-12T12:19:33;98443.84;;;24.17;24.65
63321;BME280;49449;48.800;9.534;2022-09-12T12:22:16;98442.09;;;23.95;23.94
63321;BME280;49449;48.800;9.534;2022-09-12T12:25:15;98437.66;;;23.81;22.40
63321;BME280;49449;48.800;9.534;2022-09-12T12:27:54;98432.13;;;23.78;23.41
63321;BME280;49449;48.800;9.534;2022-09-12T12:30:58;98421.97;;;23.75;23.74
63321;BME280;49449;48.800;9.534;2022-09-12T12:34:01;98423.66;;;23.88;24.07
63321;BME280;49449;48.800;9.534;2022-09-12T12:36:35;98427.19;;;23.62;24.21
63321;BME280;49449;48.800;9.534;2022-09-12T12:49:08;98406.09;;;23.65;23.61
63321;BME280;49449;48.800;9.534;2022-09-12T12:54:46;98415.13;;;23.60;23.57
63321;BME280;49449;48.800;9.534;2022-09-12T12:57:19;98410.84;;;23.59;24.07
63321;BME280;49449;48.800;9.534;2022-09-12T12:59:51;98401.47;;;23.65;23.50
63321;BME280;49449;48.800;9.534;2022-09-12T13:02:24;98403.56;;;23.68;23.90
63321;BME280;49449;48.800;9.534;2022-09-12T13:04:55;98402.09;;;23.71;23.72
63321;BME280;49449;48.800;9.534;2022-09-12T13:07:30;98405.16;;;23.69;23.44
63321;BME280;49449;48.800;9.534;2022-09-12T13:10:00;98402.75;;;23.41;23.67
63321;BME280;49449;48.800;9.534;2022-09-12T13:12:31;98403.41;;;23.56;23.98
63321;BME280;49449;48.800;9.534;2022-09-12T13:15:01;98395.47;;;23.59;24.23
63321;BME280;49449;48.800;9.534;2022-09-12T13:17:36;98395.31;;;23.56;23.49
63321;BME280;49449;48.800;9.534;2022-09-12T13:20:20;98389.28;;;23.59;24.33
63321;BME280;49449;48.800;9.534;2022-09-12T13:22:53;98381.66;;;23.52;23.58
63321;BME280;49449;48.800;9.534;2022-09-12T13:25:24;98388.81;;;23.48;23.58
63321;BME280;49449;48.800;9.534;2022-09-12T13:28:13;98381.34;;;23.54;23.68
63321;BME280;49449;48.800;9.534;2022-09-12T13:30:44;98383.28;;;23.62;24.33
63321;BME280;49449;48.800;9.534;2022-09-12T13:33:20;98372.78;;;23.69;24.43
63321;BME280;49449;48.800;9.534;2022-09-12T13:36:10;98377.06;;;23.70;24.78
63321;BME280;49449;48.800;9.534;2022-09-12T13:38:52;98377.06;;;23.70;23.70
63321;BME280;49449;48.800;9.534;2022-09-12T13:41:35;98370.88;;;23.61;24.22
63321;BME280;49449;48.800;9.534;2022-09-12T13:44:08;98372.28;;;23.67;24.79
63321;BME280;49449;48.800;9.534;2022-09-12T13:46:39;98364.84;;;23.73;24.05
63321;BME280;49449;48.800;9.534;2022-09-12T13:49:15;98363.41;;;23.75;24.92
63321;BME280;49449;48.800;9.534;2022-09-12T13:51:55;98365.78;;;23.77;24.59